Terminal Aerodrome Forecast
Issued by NWS Jackson, KY

Home | Current Version | Previous Version | Text Only | Print | Product List | Glossary On
Versions: 1 2 3 4 5 6 7 8 9 10 11 12 13 14 15 16 17 18 19 20 21
000
FTUS43 KJKL 011631 AAD
TAFLOZ
TAF AMD
KLOZ 011631Z 0117/0212 VRB05KT 1SM SHRA BR SCT010 BKN025
     FM011800 VRB05KT P6SM VCTS SCT008 OVC015CB
     FM012330 VRB05KT 6SM BR OVC010
     FM020600 VRB05KT 1/2SM FG OVC002=

USA.gov is the U.S. government's official web portal to all federal, state and local government web resources and services.